Time;durP1;ratioP1;P1;durP2;ratioP2;P2;SDS_P1;SDS_P2;PMS_P1;PMS_P2;Temp;Humidity;BMP_temperature;BMP_pressure;BME280_temperature;BME280_humidity;BME280_pressure;Samples;Min_cycle;Max_cycle;Signal;HPM_P1;HPM_P2
2023/06/19 00:01:13;;;;;;;6.18;5.05;;;;;;;18.73;50.82;97673.38;10606875;27;20491;-69
2023/06/19 00:06:34;;;;;;;7.57;5.00;;;;;;;18.70;50.73;97671.84;10581366;28;20063;-69
2023/06/19 00:11:54;;;;;;;6.45;5.07;;;;;;;18.63;51.18;97658.16;10537850;28;20069;-69
2023/06/19 00:17:16;;;;;;;5.60;4.88;;;;;;;18.58;51.51;97654.44;10565820;28;20051;-69
2023/06/19 00:22:37;;;;;;;7.57;5.28;;;;;;;18.49;51.33;97658.34;10566198;28;20071;-69
2023/06/19 00:27:58;;;;;;;9.57;5.40;;;;;;;18.48;51.68;97665.38;10551691;28;20081;-69
2023/06/19 00:33:18;;;;;;;5.85;4.93;;;;;;;18.50;51.43;97660.53;10580732;28;20393;-69
2023/06/19 00:38:39;;;;;;;6.30;4.95;;;;;;;18.54;51.45;97660.69;10551448;28;20520;-69
2023/06/19 00:44:00;;;;;;;6.20;5.05;;;;;;;18.66;51.22;97649.09;10554634;28;20051;-69
2023/06/19 00:49:21;;;;;;;6.90;4.82;;;;;;;18.70;50.74;97645.69;10573091;28;20067;-69
2023/06/19 00:54:42;;;;;;;5.40;4.53;;;;;;;18.74;50.22;97643.72;10558735;28;20044;-69
2023/06/19 01:00:07;;;;;;;6.10;4.43;;;;;;;18.71;50.45;97638.63;10557914;28;20043;-69
2023/06/19 01:05:28;;;;;;;7.72;4.72;;;;;;;18.66;50.45;97637.78;10568258;28;20386;-69
2023/06/19 01:10:52;;;;;;;6.95;4.90;;;;;;;18.72;50.08;97626.69;10572355;28;20047;-69
2023/06/19 01:16:12;;;;;;;7.17;5.10;;;;;;;18.69;49.77;97625.16;10558128;28;20040;-69
2023/06/19 01:21:33;;;;;;;6.78;5.05;;;;;;;18.66;49.96;97620.81;10571705;28;20043;-69
2023/06/19 01:26:57;;;;;;;6.70;4.80;;;;;;;18.66;49.82;97620.09;10572129;28;20048;-70
2023/06/19 01:32:21;;;;;;;6.32;4.65;;;;;;;18.61;49.93;97616.38;10585508;28;20503;-69
2023/06/19 01:37:42;;;;;;;8.52;4.80;;;;;;;18.57;49.89;97619.78;10570987;28;20040;-69
2023/06/19 01:43:04;;;;;;;4.82;4.28;;;;;;;18.60;49.81;97615.66;10570839;28;20043;-69
2023/06/19 01:48:25;;;;;;;7.25;4.68;;;;;;;18.57;50.00;97616.97;10570500;28;20111;-69
2023/06/19 01:53:45;;;;;;;5.75;4.70;;;;;;;18.54;50.00;97609.09;10556363;28;20489;-69
2023/06/19 01:59:06;;;;;;;5.15;4.57;;;;;;;18.54;50.04;97606.25;10584373;28;20046;-69
2023/06/19 02:04:27;;;;;;;6.03;4.90;;;;;;;18.52;49.69;97615.38;10584851;27;20055;-69
2023/06/19 02:09:48;;;;;;;6.03;5.00;;;;;;;18.40;50.06;97612.13;10598388;27;20496;-69
2023/06/19 02:15:09;;;;;;;6.22;4.68;;;;;;;18.33;50.07;97616.13;10583522;27;20093;-69
2023/06/19 02:20:30;;;;;;;6.13;4.57;;;;;;;18.26;50.10;97615.19;10611642;27;20121;-68
2023/06/19 02:25:51;;;;;;;10.40;5.10;;;;;;;18.24;50.67;97614.41;10597301;27;20088;-69
2023/06/19 02:31:12;;;;;;;7.82;4.72;;;;;;;18.15;50.56;97621.16;10597260;27;20417;-69
2023/06/19 02:36:33;;;;;;;5.50;4.47;;;;;;;18.06;50.72;97614.47;10610785;27;20035;-68
2023/06/19 02:41:54;;;;;;;7.28;5.35;;;;;;;18.00;51.11;97626.25;10596571;27;20473;-69
2023/06/19 02:47:15;;;;;;;5.80;4.55;;;;;;;17.92;51.10;97611.13;10582126;27;20089;-69
2023/06/19 02:52:36;;;;;;;7.43;4.82;;;;;;;17.73;51.80;97624.56;10610573;27;20043;-69
2023/06/19 02:57:56;;;;;;;6.43;5.25;;;;;;;17.46;52.43;97619.97;10625737;27;20118;-69
2023/06/19 03:03:17;;;;;;;6.63;5.05;;;;;;;17.30;53.05;97607.34;10576122;27;20097;-69
2023/06/19 03:08:38;;;;;;;9.35;5.07;;;;;;;17.28;53.57;97613.66;10567039;28;20119;-68
2023/06/19 03:14:00;;;;;;;12.15;6.03;;;;;;;17.34;53.83;97602.59;10553315;28;20114;-69
2023/06/19 03:19:20;;;;;;;9.70;5.13;;;;;;;17.40;54.09;97599.28;10567174;28;20043;-70
2023/06/19 03:24:41;;;;;;;7.13;5.18;;;;;;;17.38;54.11;97607.69;10552848;28;20063;-69
2023/06/19 03:30:12;;;;;;;9.32;5.18;;;;;;;17.40;54.70;97599.28;10540966;28;20051;-70
2023/06/19 03:35:35;;;;;;;7.97;5.43;;;;;;;17.53;54.83;97601.19;10553201;28;20040;-69
2023/06/19 03:40:57;;;;;;;8.02;5.65;;;;;;;17.70;54.74;97603.28;10552621;28;20054;-69
2023/06/19 03:46:19;;;;;;;7.40;5.70;;;;;;;17.79;54.39;97609.97;10552603;28;20439;-69
2023/06/19 03:51:40;;;;;;;8.02;5.75;;;;;;;17.75;54.57;97612.63;10538371;28;20044;-70
2023/06/19 03:57:00;;;;;;;8.50;5.57;;;;;;;17.71;55.22;97609.66;10552360;28;20047;-69
2023/06/19 04:02:22;;;;;;;8.40;5.50;;;;;;;17.72;55.53;97613.91;10549774;28;20063;-70
2023/06/19 04:07:43;;;;;;;7.63;5.95;;;;;;;17.74;55.67;97611.16;10623822;28;20112;-69
2023/06/19 04:13:06;;;;;;;7.90;5.93;;;;;;;17.78;56.14;97614.16;10594691;28;20046;-70
2023/06/19 04:18:28;;;;;;;9.18;7.20;;;;;;;17.94;56.04;97608.38;10610553;27;20422;-70
2023/06/19 04:23:49;;;;;;;11.90;7.40;;;;;;;18.23;56.36;97615.75;10616372;27;20047;-70
2023/06/19 04:29:16;;;;;;;10.02;7.05;;;;;;;18.56;56.03;97614.81;10601970;27;20104;-70
2023/06/19 04:34:45;;;;;;;7.82;6.80;;;;;;;19.09;55.80;97619.41;10603719;27;20111;-70
2023/06/19 04:40:10;;;;;;;8.77;6.43;;;;;;;19.74;54.64;97627.09;10588008;27;20100;-69
2023/06/19 04:46:09;;;;;;;8.32;6.03;;;;;;;20.27;53.90;97634.28;10630832;27;20050;-69
2023/06/19 04:51:32;;;;;;;9.52;5.75;;;;;;;20.36;52.98;97635.22;10630563;27;20484;-68
2023/06/19 04:56:53;;;;;;;8.38;5.78;;;;;;;20.38;52.25;97649.47;10615514;27;20043;-67
2023/06/19 05:02:14;;;;;;;7.90;5.70;;;;;;;20.32;51.97;97646.44;10604146;27;20055;-69
2023/06/19 05:07:35;;;;;;;7.03;5.40;;;;;;;20.42;51.54;97655.22;10572196;28;20481;-70
2023/06/19 05:12:56;;;;;;;10.18;5.00;;;;;;;20.45;51.10;97651.78;10571883;28;20066;-66
2023/06/19 05:18:17;;;;;;;5.95;5.20;;;;;;;20.43;50.80;97645.34;10587041;28;20063;-67
2023/06/19 05:23:38;;;;;;;9.15;5.43;;;;;;;20.22;50.95;97646.88;10586817;28;20040;-67
2023/06/19 05:28:59;;;;;;;7.45;5.78;;;;;;;20.09;50.61;97659.28;10586148;28;20039;-68
2023/06/19 05:34:19;;;;;;;7.53;5.38;;;;;;;20.08;50.81;97669.88;10586017;28;20531;-70
2023/06/19 05:39:40;;;;;;;6.97;5.55;;;;;;;19.91;50.99;97665.84;10570680;28;20035;-70
2023/06/19 05:45:02;;;;;;;6.80;5.85;;;;;;;19.81;51.21;97678.97;10586030;28;20080;-69
2023/06/19 05:50:23;;;;;;;8.35;6.35;;;;;;;19.82;51.84;97683.97;10556220;28;20450;-69
2023/06/19 05:55:44;;;;;;;9.38;5.90;;;;;;;19.79;51.63;97701.59;10570257;28;20031;-69
2023/06/19 06:01:06;;;;;;;11.25;6.47;;;;;;;19.93;52.19;97699.88;10585321;27;20036;-69
2023/06/19 06:06:27;;;;;;;7.35;5.85;;;;;;;20.20;51.67;97697.84;10598044;27;20047;-68
2023/06/19 06:11:48;;;;;;;10.05;6.07;;;;;;;20.10;51.49;97709.59;10597908;27;20374;-69
2023/06/19 06:17:09;;;;;;;8.88;5.95;;;;;;;19.99;51.44;97717.06;10611258;27;20477;-69
2023/06/19 06:22:31;;;;;;;8.52;6.40;;;;;;;19.90;52.06;97721.03;10611781;27;20039;-69
2023/06/19 06:27:52;;;;;;;10.95;6.43;;;;;;;19.92;51.91;97723.22;10611050;27;20043;-69
2023/06/19 06:33:12;;;;;;;10.75;6.53;;;;;;;20.20;52.25;97732.56;10611288;27;20046;-69
2023/06/19 06:38:33;;;;;;;8.77;6.20;;;;;;;20.39;51.80;97721.75;10610743;27;20039;-69
2023/06/19 06:43:55;;;;;;;10.10;6.70;;;;;;;20.50;51.75;97729.19;10581784;27;20039;-68
2023/06/19 06:49:16;;;;;;;8.38;6.28;;;;;;;20.32;51.46;97722.97;10596422;27;20035;-69
2023/06/19 06:54:37;;;;;;;49.33;10.15;;;;;;;20.09;52.32;97736.50;10582177;27;20039;-69
2023/06/19 06:59:59;;;;;;;8.60;5.72;;;;;;;20.47;52.44;97741.88;10596143;27;20039;-69
2023/06/19 07:05:19;;;;;;;9.63;6.10;;;;;;;20.87;52.10;97759.28;10581670;28;20071;-69
2023/06/19 07:10:40;;;;;;;10.15;6.22;;;;;;;21.25;51.76;97759.59;10553370;28;20071;-69
2023/06/19 07:16:01;;;;;;;11.23;6.68;;;;;;;21.49;51.00;97739.63;10582418;28;20048;-69
2023/06/19 07:21:22;;;;;;;14.70;6.90;;;;;;;21.66;51.50;97749.25;10581306;28;20062;-69
2023/06/19 07:26:43;;;;;;;8.38;6.35;;;;;;;21.85;50.75;97750.41;10567097;28;20044;-69
2023/06/19 07:32:04;;;;;;;9.52;6.18;;;;;;;22.13;50.71;97761.75;10581039;28;20473;-69
2023/06/19 07:37:26;;;;;;;19.75;6.85;;;;;;;22.45;50.01;97761.72;10580940;28;20039;-69
2023/06/19 07:42:47;;;;;;;11.02;6.85;;;;;;;22.37;49.82;97755.84;10552694;28;20043;-69
2023/06/19 07:48:08;;;;;;;12.38;7.28;;;;;;;22.08;50.11;97748.81;10581753;28;20054;-69
2023/06/19 07:53:29;;;;;;;10.70;6.32;;;;;;;22.03;50.80;97750.84;10585175;28;20066;-69
2023/06/19 07:58:49;;;;;;;13.35;6.60;;;;;;;22.04;50.77;97760.09;10574964;28;20164;-69
2023/06/19 08:04:10;;;;;;;9.52;6.78;;;;;;;21.67;52.53;97753.53;10589863;28;20071;-69
2023/06/19 08:09:31;;;;;;;16.08;6.80;;;;;;;21.70;52.00;97755.03;10574672;28;20052;-69
2023/06/19 08:14:51;;;;;;;11.13;7.20;;;;;;;21.36;52.94;97749.97;10574447;28;20146;-69
2023/06/19 08:20:15;;;;;;;13.38;7.35;;;;;;;21.06;54.10;97730.00;10574304;28;20047;-69
2023/06/19 08:25:36;;;;;;;12.05;7.20;;;;;;;20.97;55.28;97733.31;10559907;28;20039;-69
2023/06/19 08:30:57;;;;;;;13.15;7.75;;;;;;;21.07;56.62;97728.63;10559396;28;20059;-69
2023/06/19 08:36:17;;;;;;;13.98;7.35;;;;;;;20.80;58.09;97732.88;10573584;28;20043;-69
2023/06/19 08:41:38;;;;;;;10.80;8.00;;;;;;;21.02;58.38;97732.00;10588570;28;20093;-69
2023/06/19 08:46:59;;;;;;;11.75;8.00;;;;;;;21.07;59.01;97730.72;10558944;28;20043;-69
2023/06/19 08:52:20;;;;;;;13.02;8.10;;;;;;;21.55;59.70;97730.53;10558916;28;20046;-69
2023/06/19 08:57:41;;;;;;;10.57;7.28;;;;;;;22.02;58.94;97731.63;10572459;28;20043;-69
2023/06/19 09:03:03;;;;;;;13.40;7.40;;;;;;;22.11;57.70;97736.13;10604131;27;20122;-69
2023/06/19 09:08:33;;;;;;;11.25;7.88;;;;;;;22.71;56.74;97736.66;10629953;27;20412;-69
2023/06/19 09:13:58;;;;;;;11.43;6.97;;;;;;;22.94;55.97;97740.66;10614458;27;20058;-69
2023/06/19 09:19:22;;;;;;;12.65;7.28;;;;;;;23.70;55.30;97740.59;10614335;27;20039;-69
2023/06/19 09:24:43;;;;;;;9.93;6.38;;;;;;;24.73;54.15;97737.03;10629297;27;20129;-69
2023/06/19 09:30:05;;;;;;;8.65;7.38;;;;;;;25.89;49.69;97747.44;10585606;27;20043;-70
2023/06/19 09:35:32;;;;;;;7.82;6.63;;;;;;;26.92;46.64;97737.91;10586850;27;20107;-69
2023/06/19 09:40:56;;;;;;;8.30;6.68;;;;;;;28.58;41.86;97739.34;10585706;27;20039;-70
2023/06/19 09:46:17;;;;;;;;;;;;;;;29.82;39.31;97735.72;10613683;27;20039;-70
2023/06/19 09:51:38;;;;;;;8.90;6.70;;;;;;;29.46;37.57;97736.00;10612924;27;19920;-70
2023/06/19 09:57:00;;;;;;;6.43;5.53;;;;;;;30.61;37.36;97734.19;10612840;27;20381;-70
2023/06/19 10:02:21;;;;;;;6.00;5.22;;;;;;;31.62;35.65;97737.81;10601176;27;20051;-70
2023/06/19 10:07:43;;;;;;;6.47;5.70;;;;;;;31.51;33.31;97730.06;10556255;28;20425;-70
2023/06/19 10:13:15;;;;;;;6.82;5.68;;;;;;;31.15;33.45;97734.19;10555548;28;20378;-70
2023/06/19 10:18:46;;;;;;;7.18;5.30;;;;;;;32.22;32.75;97751.94;10554451;28;20453;-70
2023/06/19 10:24:22;;;;;;;5.70;5.03;;;;;;;33.20;29.85;97750.72;10555344;28;20063;-71
2023/06/19 10:29:43;;;;;;;5.97;4.75;;;;;;;33.23;29.52;97737.63;10542390;28;20097;-71
2023/06/19 10:35:24;;;;;;;6.43;5.40;;;;;;;34.24;28.84;97736.59;10557242;28;20078;-70
2023/06/19 10:40:45;;;;;;;7.70;5.35;;;;;;;34.00;27.84;97734.34;10554436;28;20540;-71
2023/06/19 10:46:06;;;;;;;9.00;5.45;;;;;;;33.50;28.24;97728.34;10568404;28;20047;-71
2023/06/19 10:51:28;;;;;;;4.32;3.67;;;;;;;32.74;29.05;97727.13;10583534;28;20470;-71
2023/06/19 10:56:50;;;;;;;6.43;5.63;;;;;;;33.04;29.14;97719.28;10568081;28;20515;-71
2023/06/19 11:02:11;;;;;;;6.28;4.65;;;;;;;32.52;28.70;97712.41;10577760;27;20083;-71
2023/06/19 11:07:32;;;;;;;8.02;4.82;;;;;;;31.79;29.31;97708.72;10610177;27;20100;-70
2023/06/19 11:12:57;;;;;;;5.10;4.60;;;;;;;31.91;29.71;97714.28;10595477;27;20035;-70
2023/06/19 11:18:18;;;;;;;5.72;4.10;;;;;;;32.01;28.82;97699.66;10595590;27;20063;-70
2023/06/19 11:23:38;;;;;;;4.68;3.92;;;;;;;31.90;28.42;97701.31;10609338;27;20110;-71
2023/06/19 11:28:59;;;;;;;7.83;4.27;;;;;;;32.03;28.27;97696.72;10624339;27;20085;-71
2023/06/19 11:34:20;;;;;;;6.67;4.83;;;;;;;31.96;28.07;97698.31;10609160;27;20122;-71
2023/06/19 11:39:47;;;;;;;7.88;4.55;;;;;;;32.28;27.22;97699.88;10609921;27;20036;-71
2023/06/19 11:45:08;;;;;;;6.88;4.47;;;;;;;31.80;27.41;97696.44;10608981;28;20070;-71
2023/06/19 11:50:29;;;;;;;7.50;4.07;;;;;;;31.70;27.29;97690.81;10608473;28;20043;-70
2023/06/19 11:55:51;;;;;;;4.60;4.15;;;;;;;32.12;27.18;97685.75;10624075;28;20164;-71
2023/06/19 12:01:12;;;;;;;7.82;4.43;;;;;;;31.65;28.07;97680.09;10606574;27;20118;-70
2023/06/19 12:06:35;;;;;;;5.93;4.57;;;;;;;32.13;27.58;97673.44;10581316;28;20071;-71
2023/06/19 12:11:56;;;;;;;6.15;4.45;;;;;;;32.19;27.53;97673.31;10566395;28;20082;-71
2023/06/19 12:17:16;;;;;;;7.53;4.95;;;;;;;32.01;28.30;97672.97;10551942;28;20401;-71
2023/06/19 12:22:37;;;;;;;5.63;4.33;;;;;;;32.57;27.85;97671.13;10566040;28;20040;-70
2023/06/19 12:27:58;;;;;;;7.17;4.70;;;;;;;32.35;27.55;97672.31;10565450;28;20161;-71
2023/06/19 12:33:21;;;;;;;4.57;3.97;;;;;;;32.07;27.62;97672.84;10581108;28;20069;-70
2023/06/19 12:38:42;;;;;;;5.90;4.13;;;;;;;32.36;27.79;97673.03;10567028;28;20180;-70
2023/06/19 12:44:03;;;;;;;6.63;4.82;;;;;;;32.32;27.49;97676.00;10573207;28;20508;-71
2023/06/19 12:49:24;;;;;;;5.80;4.53;;;;;;;32.53;26.84;97673.41;10573019;28;20073;-71
2023/06/19 12:54:45;;;;;;;7.37;5.17;;;;;;;32.01;26.61;97685.22;10588208;28;20039;-71
2023/06/19 13:00:11;;;;;;;5.25;4.70;;;;;;;31.33;27.30;97673.41;10572927;28;20185;-71
2023/06/19 13:05:32;;;;;;;6.20;4.40;;;;;;;31.18;27.05;97686.59;10568258;28;20056;-71
2023/06/19 13:10:53;;;;;;;6.77;5.60;;;;;;;30.95;27.67;97681.16;10586613;28;20054;-71
2023/06/19 13:16:18;;;;;;;6.20;4.97;;;;;;;30.91;28.30;97681.22;10586147;28;20040;-71
2023/06/19 13:21:59;;;;;;;7.07;4.93;;;;;;;30.67;29.05;97678.69;10574397;28;20481;-71
2023/06/19 13:27:20;;;;;;;6.38;5.35;;;;;;;30.75;29.01;97679.28;10585891;28;20521;-71
2023/06/19 13:32:40;;;;;;;7.00;4.88;;;;;;;31.26;29.34;97667.03;10585505;28;20067;-71
2023/06/19 13:38:01;;;;;;;5.30;4.80;;;;;;;32.06;27.74;97677.91;10585235;28;20070;-71
2023/06/19 13:43:23;;;;;;;7.37;4.90;;;;;;;32.37;27.50;97672.28;10586083;28;20063;-71
2023/06/19 13:48:43;;;;;;;5.47;4.88;;;;;;;32.46;27.24;97667.03;10570806;28;20130;-71
2023/06/19 13:54:04;;;;;;;7.97;5.10;;;;;;;32.56;26.70;97661.06;10585805;28;20115;-71
2023/06/19 13:59:25;;;;;;;5.37;4.70;;;;;;;31.97;26.99;97665.09;10584461;28;20067;-71
2023/06/19 14:04:45;;;;;;;8.20;4.60;;;;;;;31.00;28.17;97658.78;10584113;28;20048;-71
2023/06/19 14:10:06;;;;;;;6.10;5.03;;;;;;;30.45;28.47;97637.19;10584937;28;20051;-71
2023/06/19 14:15:27;;;;;;;6.07;5.30;;;;;;;30.36;29.79;97627.22;10585078;28;20043;-71
2023/06/19 14:20:48;;;;;;;5.90;5.30;;;;;;;30.64;29.55;97623.28;10584428;28;20062;-71
2023/06/19 14:26:10;;;;;;;6.25;5.50;;;;;;;30.76;29.72;97616.63;10583345;28;20067;-71
2023/06/19 14:31:31;;;;;;;6.97;5.28;;;;;;;30.92;29.54;97615.66;10583193;28;20078;-70
2023/06/19 14:36:51;;;;;;;9.15;5.18;;;;;;;31.18;29.09;97626.06;10568807;28;20504;-70
2023/06/19 14:42:12;;;;;;;5.90;5.17;;;;;;;31.08;29.37;97631.97;10568495;28;20059;-71
2023/06/19 14:47:33;;;;;;;6.53;5.17;;;;;;;30.74;29.34;97631.06;10583390;28;20089;-70
2023/06/19 14:52:54;;;;;;;;;;;;;;;29.99;30.53;97635.56;10582989;28;20115;-71
2023/06/19 14:58:15;;;;;;;8.63;5.30;;;;;;;29.43;31.36;97628.19;10582945;28;20366;-71
2023/06/19 15:03:36;;;;;;;7.20;5.32;;;;;;;29.43;31.47;97636.81;10604250;27;20437;-70
2023/06/19 15:08:57;;;;;;;7.38;5.55;;;;;;;29.13;32.19;97632.03;10625042;27;20103;-71
2023/06/19 15:14:22;;;;;;;6.65;5.68;;;;;;;29.24;32.36;97631.25;10610338;27;20058;-70
2023/06/19 15:19:42;;;;;;;8.35;5.75;;;;;;;28.95;32.86;97619.28;10595438;27;20448;-71
2023/06/19 15:25:03;;;;;;;6.28;5.18;;;;;;;29.04;33.02;97622.78;10595345;27;20042;-71
2023/06/19 15:30:24;;;;;;;5.57;4.93;;;;;;;29.16;32.62;97613.38;10609368;27;20067;-71
2023/06/19 15:35:47;;;;;;;7.78;4.40;;;;;;;28.97;32.65;97609.91;10608966;27;20115;-71
2023/06/19 15:41:07;;;;;;;6.80;4.15;;;;;;;28.95;32.60;97616.41;10595250;27;20112;-71
2023/06/19 15:46:28;;;;;;;6.30;3.92;;;;;;;28.63;32.76;97605.81;10608668;28;20152;-71
2023/06/19 15:51:49;;;;;;;5.07;3.60;;;;;;;28.66;32.79;97603.63;10580533;28;20096;-70
2023/06/19 15:57:12;;;;;;;4.38;3.40;;;;;;;28.86;32.90;97597.06;10608892;28;20046;-71
2023/06/19 16:02:33;;;;;;;4.82;3.90;;;;;;;28.81;32.79;97599.22;10595775;28;20063;-70
2023/06/19 16:07:53;;;;;;;3.92;3.53;;;;;;;28.86;32.80;97585.56;10581406;28;20040;-70
2023/06/19 16:13:14;;;;;;;7.35;3.65;;;;;;;28.83;32.54;97587.72;10568220;28;20043;-71
2023/06/19 16:18:35;;;;;;;7.45;4.03;;;;;;;28.51;33.10;97577.88;10574398;28;20115;-70
2023/06/19 16:23:56;;;;;;;5.15;3.75;;;;;;;28.42;33.58;97570.75;10574031;28;20036;-71
2023/06/19 16:29:18;;;;;;;5.32;3.70;;;;;;;28.43;33.74;97569.31;10589167;28;20074;-71
2023/06/19 16:34:39;;;;;;;7.35;3.95;;;;;;;28.30;33.91;97570.13;10574027;28;20435;-71
2023/06/19 16:40:00;;;;;;;4.72;3.83;;;;;;;28.34;33.83;97564.34;10559011;28;20462;-71
2023/06/19 16:45:22;;;;;;;8.93;4.30;;;;;;;28.36;33.72;97567.91;10573290;28;20127;-71
2023/06/19 16:50:42;;;;;;;5.72;3.70;;;;;;;28.31;33.86;97572.28;10573066;28;20119;-71
2023/06/19 16:56:03;;;;;;;5.00;4.43;;;;;;;28.23;34.02;97566.53;10573007;28;20071;-70
2023/06/19 17:01:24;;;;;;;5.57;4.10;;;;;;;28.15;34.01;97569.44;10561050;27;20126;-71
2023/06/19 17:06:45;;;;;;;7.35;4.00;;;;;;;28.05;34.34;97575.94;10614720;27;20118;-71
2023/06/19 17:12:06;;;;;;;5.22;3.50;;;;;;;28.08;34.46;97582.38;10600245;27;20092;-71
2023/06/19 17:17:27;;;;;;;6.78;4.07;;;;;;;28.08;34.64;97574.50;10629586;27;20050;-71
2023/06/19 17:22:48;;;;;;;4.65;3.28;;;;;;;27.85;34.54;97582.47;10599783;27;20126;-70
2023/06/19 17:28:08;;;;;;;4.90;3.45;;;;;;;27.54;35.29;97583.97;10598992;27;20485;-71
2023/06/19 17:33:29;;;;;;;5.20;3.70;;;;;;;27.26;35.68;97576.88;10613830;27;20066;-71
2023/06/19 17:38:51;;;;;;;6.38;3.65;;;;;;;26.95;35.81;97570.41;10599186;27;20039;-70
2023/06/19 17:44:11;;;;;;;5.53;3.60;;;;;;;26.66;36.49;97574.69;10598913;27;20047;-71
2023/06/19 17:49:33;;;;;;;5.50;3.72;;;;;;;26.43;37.11;97566.06;10598805;27;20051;-70
2023/06/19 17:54:54;;;;;;;7.20;4.05;;;;;;;26.26;37.53;97573.16;10598481;27;20050;-70
2023/06/19 18:00:15;;;;;;;4.63;3.93;;;;;;;26.06;37.79;97576.66;10598519;27;20468;-70
2023/06/19 18:05:36;;;;;;;7.93;4.00;;;;;;;25.93;37.94;97584.47;10583853;28;20485;-70
2023/06/19 18:10:59;;;;;;;6.07;4.22;;;;;;;25.84;38.82;97573.69;10585189;28;20104;-70
2023/06/19 18:16:19;;;;;;;6.07;4.50;;;;;;;25.69;39.08;97582.19;10583769;28;20040;-69
2023/06/19 18:21:40;;;;;;;7.22;4.22;;;;;;;25.57;39.92;97587.09;10584614;28;20393;-70
2023/06/19 18:27:01;;;;;;;5.47;4.15;;;;;;;25.42;40.22;97588.47;10569279;28;20040;-69
2023/06/19 18:32:21;;;;;;;7.25;4.32;;;;;;;25.22;40.39;97594.75;10569190;28;20039;-69
2023/06/19 18:37:42;;;;;;;6.25;4.47;;;;;;;25.01;41.32;97591.00;10582296;28;20039;-70
2023/06/19 18:43:03;;;;;;;5.15;4.22;;;;;;;24.91;41.92;97590.91;10582821;28;20039;-70
2023/06/19 18:48:25;;;;;;;7.45;4.97;;;;;;;24.76;42.47;97590.78;10582814;28;20527;-70
2023/06/19 18:53:46;;;;;;;6.72;4.53;;;;;;;24.65;42.58;97580.69;10582477;28;20067;-69
2023/06/19 18:59:06;;;;;;;8.25;5.22;;;;;;;24.52;43.27;97587.69;10567756;28;20192;-70
2023/06/19 19:04:27;;;;;;;6.95;5.15;;;;;;;24.40;43.75;97598.97;10582504;28;20450;-70
2023/06/19 19:09:49;;;;;;;6.15;4.60;;;;;;;24.25;44.15;97604.50;10582628;28;20078;-69
2023/06/19 19:15:10;;;;;;;11.80;5.20;;;;;;;24.10;44.54;97614.28;10553844;28;20046;-70
2023/06/19 19:20:31;;;;;;;9.55;4.93;;;;;;;23.94;44.97;97602.72;10567226;28;20067;-69
2023/06/19 19:25:51;;;;;;;5.97;4.72;;;;;;;23.74;45.39;97608.88;10582459;28;20552;-69
2023/06/19 19:31:12;;;;;;;8.23;5.00;;;;;;;23.65;45.54;97601.63;10582211;28;20051;-70
2023/06/19 19:36:33;;;;;;;6.07;4.50;;;;;;;23.63;45.55;97610.84;10552805;28;20542;-69
2023/06/19 19:41:54;;;;;;;8.63;4.95;;;;;;;23.58;46.19;97609.31;10566744;28;20043;-69
2023/06/19 19:47:15;;;;;;;8.02;5.07;;;;;;;23.54;45.98;97622.78;10568150;28;20127;-70
2023/06/19 19:52:36;;;;;;;9.45;4.80;;;;;;;23.48;46.28;97623.41;10566647;28;20107;-70
2023/06/19 19:58:00;;;;;;;6.38;4.63;;;;;;;23.43;46.29;97621.91;10580420;28;20055;-69
2023/06/19 20:03:21;;;;;;;7.65;5.32;;;;;;;23.38;46.41;97623.28;10600742;27;20054;-69
2023/06/19 20:08:43;;;;;;;7.38;5.20;;;;;;;23.34;46.53;97629.59;10638087;27;20061;-69
2023/06/19 20:14:05;;;;;;;7.10;5.55;;;;;;;23.27;46.59;97622.41;10622639;27;20043;-69
2023/06/19 20:19:26;;;;;;;6.63;5.25;;;;;;;23.24;46.04;97614.50;10608532;27;20046;-69
2023/06/19 20:24:50;;;;;;;7.50;5.63;;;;;;;23.08;46.70;97627.09;10622805;27;20484;-69
2023/06/19 20:30:12;;;;;;;6.07;5.22;;;;;;;22.98;46.92;97646.13;10608324;27;20050;-69
2023/06/19 20:35:33;;;;;;;5.90;5.13;;;;;;;22.88;47.14;97640.25;10607932;27;20443;-69
2023/06/19 20:40:54;;;;;;;9.23;5.55;;;;;;;22.80;47.25;97657.88;10622246;27;20039;-70
2023/06/19 20:46:15;;;;;;;7.93;5.47;;;;;;;22.72;47.53;97652.03;10607688;27;20065;-69
2023/06/19 20:51:39;;;;;;;9.07;5.97;;;;;;;22.68;48.02;97640.56;10607648;27;20051;-69
2023/06/19 20:57:00;;;;;;;10.68;5.93;;;;;;;22.68;47.65;97652.69;10637459;27;20504;-69
2023/06/19 21:02:21;;;;;;;8.00;6.30;;;;;;;22.61;48.11;97641.88;10604173;27;20066;-69
2023/06/19 21:07:43;;;;;;;7.85;5.78;;;;;;;22.61;47.94;97650.41;10572694;28;20040;-70
2023/06/19 21:13:04;;;;;;;6.63;5.82;;;;;;;22.61;48.22;97653.25;10558293;28;20047;-70
2023/06/19 21:18:42;;;;;;;7.10;5.82;;;;;;;22.59;48.57;97656.78;10587351;28;20039;-69
2023/06/19 21:24:03;;;;;;;6.90;5.97;;;;;;;22.61;48.40;97665.34;10571952;28;20044;-69
2023/06/19 21:29:24;;;;;;;7.57;6.38;;;;;;;22.62;48.58;97666.06;10571554;28;20047;-69
2023/06/19 21:34:45;;;;;;;6.43;5.82;;;;;;;22.51;48.90;97656.63;10571524;28;20110;-70
2023/06/19 21:40:07;;;;;;;7.38;6.10;;;;;;;22.45;49.18;97662.91;10543217;28;20051;-69
2023/06/19 21:45:28;;;;;;;8.68;6.55;;;;;;;22.40;49.20;97658.56;10586437;28;20048;-69
2023/06/19 21:50:49;;;;;;;8.32;6.50;;;;;;;22.41;49.80;97662.13;10556691;28;20078;-69
2023/06/19 21:56:10;;;;;;;7.78;6.30;;;;;;;22.43;50.02;97662.16;10542394;28;20107;-69
2023/06/19 22:01:31;;;;;;;7.82;6.55;;;;;;;22.49;50.20;97660.16;10559970;27;20104;-70
2023/06/19 22:06:52;;;;;;;7.75;6.20;;;;;;;22.53;50.37;97659.50;10628145;27;20480;-69
2023/06/19 22:12:14;;;;;;;9.30;6.88;;;;;;;22.45;50.54;97665.03;10612248;27;20038;-69
2023/06/19 22:17:35;;;;;;;8.25;6.38;;;;;;;22.45;50.63;97673.56;10627529;27;20103;-69
2023/06/19 22:22:56;;;;;;;8.88;6.72;;;;;;;22.39;50.86;97677.00;10598028;27;20059;-69
2023/06/19 22:28:17;;;;;;;9.32;6.50;;;;;;;22.29;51.15;97682.47;10627054;27;20039;-69
2023/06/19 22:33:38;;;;;;;8.48;6.72;;;;;;;22.20;51.22;97675.94;10583399;27;20495;-69
2023/06/19 22:38:59;;;;;;;11.32;6.75;;;;;;;22.12;51.45;97680.72;10597064;27;20043;-69
2023/06/19 22:44:20;;;;;;;9.02;6.22;;;;;;;22.05;51.64;97679.09;10611289;27;20484;-69
2023/06/19 22:49:43;;;;;;;9.10;5.93;;;;;;;21.95;51.76;97680.34;10610922;27;20511;-69
2023/06/19 22:55:04;;;;;;;7.37;6.57;;;;;;;21.87;52.07;97685.84;10625928;27;20084;-69
2023/06/19 23:00:25;;;;;;;7.03;5.90;;;;;;;21.83;52.13;97677.22;10596022;27;20039;-69
2023/06/19 23:05:47;;;;;;;7.65;6.68;;;;;;;21.70;51.99;97673.38;10581800;28;20431;-69
2023/06/19 23:11:08;;;;;;;7.63;6.00;;;;;;;21.58;52.69;97672.38;10581964;28;20516;-69
2023/06/19 23:16:30;;;;;;;7.88;6.28;;;;;;;21.49;52.92;97671.47;10553788;28;20052;-69
2023/06/19 23:21:51;;;;;;;6.60;5.70;;;;;;;21.41;52.97;97680.50;10581161;28;20050;-69
2023/06/19 23:27:12;;;;;;;7.50;6.47;;;;;;;21.35;53.09;97671.88;10582576;28;20039;-70
2023/06/19 23:32:33;;;;;;;9.25;6.57;;;;;;;21.28;53.65;97673.09;10581128;28;20040;-69
2023/06/19 23:37:56;;;;;;;9.05;6.90;;;;;;;21.27;53.44;97673.78;10567245;28;20043;-69
2023/06/19 23:43:17;;;;;;;14.25;7.00;;;;;;;21.21;53.64;97665.81;10582013;28;20036;-69
2023/06/19 23:48:38;;;;;;;7.28;6.15;;;;;;;21.15;53.90;97660.72;10581096;28;20493;-69
2023/06/19 23:53:59;;;;;;;8.65;6.43;;;;;;;21.10;54.03;97666.94;10566650;28;20485;-69
2023/06/19 23:59:20;;;;;;;10.15;6.43;;;;;;;20.99;54.31;97663.16;10580751;28;20374;-69
